createdAt,value
2022-08-11T00:01:14.647Z,42.20
2022-08-11T00:03:48.098Z,42.20
2022-08-11T00:06:26.402Z,42.30
2022-08-11T00:08:56.489Z,42.50
2022-08-11T00:11:35.533Z,42.50
2022-08-11T00:14:05.481Z,42.70
2022-08-11T00:16:35.342Z,42.80
2022-08-11T00:19:06.294Z,42.90
2022-08-11T00:22:04.612Z,42.90
2022-08-11T00:24:53.392Z,42.90
2022-08-11T00:27:34.379Z,43.10
2022-08-11T00:30:05.486Z,43.00
2022-08-11T00:32:35.366Z,43.10
2022-08-11T00:35:51.366Z,43.20
2022-08-11T00:37:59.502Z,43.30
2022-08-11T00:40:37.660Z,43.40
2022-08-11T00:43:21.957Z,43.40
2022-08-11T00:46:13.478Z,43.50
2022-08-11T00:48:59.022Z,43.50
2022-08-11T00:51:59.698Z,43.60
2022-08-11T00:55:04.444Z,43.50
2022-08-11T00:57:55.067Z,43.60
2022-08-11T01:00:26.588Z,43.60
2022-08-11T01:03:12.987Z,43.70
2022-08-11T01:05:57.604Z,44.00
2022-08-11T01:09:08.060Z,44.00
2022-08-11T01:12:16.657Z,44.10
2022-08-11T01:15:21.457Z,44.00
2022-08-11T01:18:40.840Z,44.10
2022-08-11T01:21:22.271Z,44.10
2022-08-11T01:24:38.532Z,44.30
2022-08-11T01:27:58.692Z,44.30
2022-08-11T01:30:54.391Z,44.30
2022-08-11T01:34:08.512Z,44.40
2022-08-11T01:37:13.260Z,44.60
2022-08-11T01:40:16.399Z,45.10
2022-08-11T01:43:28.989Z,44.60
2022-08-11T01:46:06.126Z,44.70
2022-08-11T01:48:43.333Z,44.90
2022-08-11T01:51:34.044Z,45.00
2022-08-11T01:54:10.879Z,45.00
2022-08-11T01:56:49.210Z,45.20
2022-08-11T01:59:22.678Z,45.20
2022-08-11T02:02:06.878Z,45.20
2022-08-11T02:04:42.208Z,45.40
2022-08-11T02:07:18.359Z,45.60
2022-08-11T02:10:01.909Z,45.40
2022-08-11T02:12:51.244Z,45.50
2022-08-11T02:15:28.859Z,45.40
2022-08-11T02:18:09.194Z,45.40
2022-08-11T02:21:03.943Z,45.60
2022-08-11T02:24:07.262Z,45.50
2022-08-11T02:26:40.890Z,45.50
2022-08-11T02:29:16.890Z,45.80
2022-08-11T02:32:28.754Z,46.10
2022-08-11T02:35:15.293Z,46.00
2022-08-11T02:37:54.620Z,46.00
2022-08-11T02:40:32.287Z,46.10
2022-08-11T02:43:21.780Z,46.00
2022-08-11T02:46:02.098Z,46.10
2022-08-11T02:49:05.582Z,46.10
2022-08-11T02:51:43.669Z,46.10
2022-08-11T02:54:21.887Z,46.20
2022-08-11T02:56:58.052Z,46.20
2022-08-11T02:59:53.585Z,46.20
2022-08-11T03:02:33.060Z,46.50
2022-08-11T03:05:09.156Z,46.50
2022-08-11T03:07:49.311Z,46.70
2022-08-11T03:10:23.608Z,46.80
2022-08-11T03:13:16.050Z,46.80
2022-08-11T03:16:10.251Z,46.80
2022-08-11T03:18:47.504Z,46.90
2022-08-11T03:21:21.940Z,46.90
2022-08-11T03:24:02.283Z,47.00
2022-08-11T03:26:34.699Z,46.90
2022-08-11T03:29:12.842Z,47.00
2022-08-11T03:32:02.049Z,47.10
2022-08-11T03:34:37.842Z,47.10
2022-08-11T03:37:43.093Z,47.20
2022-08-11T03:40:40.235Z,47.30
2022-08-11T03:43:25.278Z,47.30
2022-08-11T03:46:02.706Z,47.30
2022-08-11T03:48:43.991Z,47.40
2022-08-11T03:51:20.797Z,47.60
2022-08-11T03:54:06.840Z,47.80
2022-08-11T03:57:09.579Z,47.70
2022-08-11T04:00:11.196Z,47.60
2022-08-11T04:03:02.407Z,47.70
2022-08-11T04:06:13.199Z,47.80
2022-08-11T04:09:05.267Z,47.90
2022-08-11T04:12:14.591Z,48.00
2022-08-11T04:15:42.703Z,48.10
2022-08-11T04:18:45.123Z,48.20
2022-08-11T04:21:44.154Z,48.10
2022-08-11T04:24:39.295Z,47.80
2022-08-11T04:27:39.106Z,47.80
2022-08-11T04:30:14.842Z,47.90
2022-08-11T04:33:21.904Z,48.00
2022-08-11T04:35:58.979Z,48.20
2022-08-11T04:39:06.465Z,48.20
2022-08-11T04:42:18.078Z,48.20
2022-08-11T04:45:34.835Z,48.30
2022-08-11T04:48:43.563Z,48.00
2022-08-11T04:51:54.318Z,48.00
2022-08-11T04:54:58.540Z,48.10
2022-08-11T04:57:59.635Z,48.10
2022-08-11T05:00:53.716Z,48.00
2022-08-11T05:03:44.239Z,48.10
2022-08-11T05:06:58.638Z,48.10
2022-08-11T05:09:56.279Z,48.20
2022-08-11T05:12:36.713Z,48.20
2022-08-11T05:15:30.660Z,48.30
2022-08-11T05:18:26.400Z,48.80
2022-08-11T05:21:16.547Z,48.10
2022-08-11T05:24:12.991Z,48.10
2022-08-11T05:27:11.325Z,48.10
2022-08-11T05:30:01.411Z,48.10
2022-08-11T05:32:59.318Z,48.10
2022-08-11T05:36:00.031Z,48.20
2022-08-11T05:38:45.682Z,48.90
2022-08-11T05:41:33.094Z,48.50
2022-08-11T05:44:23.276Z,48.40
2022-08-11T05:47:10.239Z,48.30
2022-08-11T05:49:58.097Z,48.10
2022-08-11T05:52:49.069Z,47.90
2022-08-11T05:56:01.931Z,48.10
2022-08-11T05:58:41.752Z,47.90
2022-08-11T06:01:14.109Z,48.30
2022-08-11T06:04:03.746Z,47.80
2022-08-11T06:06:33.070Z,47.60
2022-08-11T06:09:02.797Z,47.60
2022-08-11T06:11:43.515Z,47.40
2022-08-11T06:14:15.942Z,47.60
2022-08-11T06:16:50.256Z,47.60
2022-08-11T06:19:23.323Z,47.50
2022-08-11T06:21:54.183Z,47.30
2022-08-11T06:24:24.334Z,47.20
2022-08-11T06:27:11.861Z,47.50
2022-08-11T06:29:55.190Z,47.50
2022-08-11T06:32:32.494Z,46.90
2022-08-11T06:35:20.310Z,46.60
2022-08-11T06:38:03.650Z,46.40
2022-08-11T06:40:44.616Z,47.10
2022-08-11T06:43:19.929Z,46.80
2022-08-11T06:45:54.376Z,47.30
2022-08-11T06:48:26.781Z,47.50
2022-08-11T06:51:12.629Z,46.80
2022-08-11T06:54:03.802Z,46.80
2022-08-11T06:57:12.400Z,46.50
2022-08-11T07:00:03.229Z,46.20
2022-08-11T07:02:35.396Z,46.50
2022-08-11T07:05:15.496Z,46.30
2022-08-11T07:08:52.847Z,46.00
2022-08-11T07:12:13.634Z,45.70
2022-08-11T07:15:20.209Z,45.50
2022-08-11T07:18:12.819Z,45.40
2022-08-11T07:21:02.472Z,45.30
2022-08-11T07:23:52.926Z,44.90
2022-08-11T07:26:42.788Z,44.80
2022-08-11T07:29:14.107Z,44.80
2022-08-11T07:31:50.120Z,44.60
2022-08-11T07:34:24.039Z,44.30
2022-08-11T07:36:56.750Z,44.10
2022-08-11T07:39:28.322Z,44.20
2022-08-11T07:41:59.566Z,43.90
2022-08-11T07:44:34.793Z,43.80
2022-08-11T07:47:23.039Z,43.70
2022-08-11T07:50:12.515Z,43.10
2022-08-11T07:52:43.409Z,42.70
2022-08-11T07:55:16.843Z,42.80
2022-08-11T07:58:15.517Z,42.90
2022-08-11T08:01:21.730Z,42.70
2022-08-11T08:04:10.189Z,42.40
2022-08-11T08:06:57.962Z,42.10
2022-08-11T08:09:47.250Z,41.30
2022-08-11T08:12:34.613Z,40.90
2022-08-11T08:15:26.508Z,39.70
2022-08-11T08:18:20.827Z,38.50
2022-08-11T08:20:49.928Z,39.10
2022-08-11T08:23:33.340Z,38.70
2022-08-11T08:26:26.617Z,37.90
2022-08-11T08:29:18.350Z,38.10
2022-08-11T08:31:48.639Z,37.90
2022-08-11T08:34:19.390Z,37.60
2022-08-11T08:36:50.318Z,37.60
2022-08-11T08:39:21.633Z,37.40
2022-08-11T08:41:56.375Z,37.20
2022-08-11T08:44:44.952Z,36.90
2022-08-11T08:47:42.962Z,36.70
2022-08-11T08:50:16.607Z,37.00
2022-08-11T08:52:51.634Z,37.10
2022-08-11T08:55:21.942Z,36.40
2022-08-11T08:57:55.376Z,36.30
2022-08-11T09:00:25.478Z,35.70
2022-08-11T09:02:55.347Z,35.70
2022-08-11T09:05:26.514Z,35.50
2022-08-11T09:07:58.067Z,35.90
2022-08-11T09:10:30.900Z,35.20
2022-08-11T09:13:05.499Z,34.60
2022-08-11T09:15:36.048Z,34.60
2022-08-11T09:18:09.218Z,34.20
2022-08-11T09:20:39.497Z,34.30
2022-08-11T09:26:35.918Z,34.70
2022-08-11T09:29:06.918Z,34.50
2022-08-11T09:31:39.985Z,34.40
2022-08-11T09:34:11.991Z,34.60
2022-08-11T09:37:01.717Z,34.40
2022-08-11T09:39:50.266Z,34.40
2022-08-11T09:42:23.099Z,34.30
2022-08-11T09:44:54.152Z,34.00
2022-08-11T09:47:25.259Z,34.20
2022-08-11T09:50:00.229Z,34.20
2022-08-11T09:52:33.404Z,34.00
2022-08-11T09:55:10.844Z,33.70
2022-08-11T09:57:59.769Z,33.60
2022-08-11T10:00:37.604Z,32.90
2022-08-11T10:03:10.882Z,33.40
2022-08-11T10:06:04.505Z,33.30
2022-08-11T10:08:39.029Z,33.10
2022-08-11T10:11:10.509Z,33.30
2022-08-11T10:14:31.429Z,33.30
2022-08-11T10:16:49.370Z,33.90
2022-08-11T10:19:21.972Z,32.80
2022-08-11T10:22:13.974Z,32.10
2022-08-11T10:25:02.822Z,32.40
2022-08-11T10:28:18.508Z,32.40
2022-08-11T10:30:57.546Z,32.50
2022-08-11T10:33:57.609Z,32.80
2022-08-11T10:36:29.648Z,33.20
2022-08-11T10:39:00.468Z,33.30
2022-08-11T10:42:06.158Z,33.30
2022-08-11T10:44:39.022Z,33.00
2022-08-11T10:47:26.537Z,32.00
2022-08-11T10:50:15.982Z,32.50
2022-08-11T10:53:06.001Z,32.60
2022-08-11T10:55:53.958Z,33.10
2022-08-11T10:58:47.774Z,32.00
2022-08-11T11:01:19.610Z,32.30
2022-08-11T11:03:52.499Z,32.10
2022-08-11T11:06:29.869Z,32.80
2022-08-11T11:09:05.312Z,32.60
2022-08-11T11:11:55.978Z,31.70
2022-08-11T11:14:49.755Z,32.00
2022-08-11T11:17:45.383Z,31.70
2022-08-11T11:20:35.899Z,31.70
2022-08-11T11:23:16.760Z,31.00
2022-08-11T11:26:07.265Z,32.20
2022-08-11T11:28:53.832Z,32.50
2022-08-11T11:31:33.147Z,32.20
2022-08-11T11:34:22.312Z,31.20
2022-08-11T11:36:54.990Z,32.20
2022-08-11T11:39:27.552Z,31.70
2022-08-11T11:41:58.618Z,31.40
2022-08-11T11:44:28.566Z,32.20
2022-08-11T11:46:57.879Z,32.50
2022-08-11T11:49:32.274Z,32.00
2022-08-11T11:52:01.843Z,32.00
2022-08-11T11:54:33.860Z,31.60
2022-08-11T11:57:28.149Z,30.40
2022-08-11T12:00:15.598Z,31.60
2022-08-11T12:02:45.793Z,31.30
2022-08-11T12:05:15.669Z,30.80
2022-08-11T12:08:12.426Z,31.50
2022-08-11T12:10:47.064Z,31.30
2022-08-11T12:13:36.189Z,31.00
2022-08-11T12:16:33.124Z,29.80
2022-08-11T12:18:59.403Z,30.00
2022-08-11T12:21:29.452Z,30.40
2022-08-11T12:24:19.563Z,30.50
2022-08-11T12:27:16.765Z,29.70
2022-08-11T12:29:54.420Z,30.40
2022-08-11T12:32:26.760Z,31.00
2022-08-11T12:34:56.720Z,29.60
2022-08-11T12:37:31.116Z,30.10
2022-08-11T12:40:43.688Z,30.00
2022-08-11T12:43:39.051Z,30.00
2022-08-11T12:46:12.640Z,29.30
2022-08-11T12:49:03.589Z,29.60
2022-08-11T12:52:11.213Z,30.40
2022-08-11T12:54:51.637Z,30.00
2022-08-11T12:57:46.593Z,29.10
2022-08-11T13:00:36.899Z,29.80
2022-08-11T13:03:26.682Z,29.50
2022-08-11T13:05:58.810Z,29.20
2022-08-11T13:08:30.075Z,29.20
2022-08-11T13:11:18.501Z,29.40
2022-08-11T13:13:52.486Z,29.10
2022-08-11T13:16:30.259Z,29.00
2022-08-11T13:19:01.834Z,29.60
2022-08-11T13:21:32.153Z,29.40
2022-08-11T13:24:03.694Z,28.90
2022-08-11T13:26:43.488Z,27.30
2022-08-11T13:29:19.842Z,27.90
2022-08-11T13:31:50.873Z,28.00
2022-08-11T13:34:21.144Z,27.90
2022-08-11T13:36:53.036Z,28.30
2022-08-11T13:39:24.582Z,27.90
2022-08-11T13:41:56.460Z,27.90
2022-08-11T13:44:28.405Z,27.00
2022-08-11T13:47:01.475Z,27.80
2022-08-11T13:49:32.497Z,27.60
2022-08-11T13:52:02.472Z,27.70
2022-08-11T13:54:33.399Z,27.30
2022-08-11T13:57:09.047Z,27.30
2022-08-11T13:59:52.531Z,27.40
2022-08-11T14:02:30.750Z,28.20
2022-08-11T14:05:07.043Z,27.30
2022-08-11T14:07:40.542Z,27.70
2022-08-11T14:10:13.347Z,26.90
2022-08-11T14:13:05.379Z,27.10
2022-08-11T14:15:35.938Z,27.20
2022-08-11T14:18:10.187Z,27.80
2022-08-11T14:21:01.196Z,27.10
2022-08-11T14:23:36.749Z,26.90
2022-08-11T14:26:26.364Z,27.20
2022-08-11T14:29:10.564Z,27.60
2022-08-11T14:31:47.242Z,27.10
2022-08-11T14:34:21.618Z,27.00
2022-08-11T14:36:53.384Z,27.90
2022-08-11T14:39:26.621Z,28.10
2022-08-11T14:42:15.840Z,28.10
2022-08-11T14:45:04.928Z,27.60
2022-08-11T14:47:36.804Z,27.50
2022-08-11T14:50:13.932Z,27.50
2022-08-11T14:52:49.995Z,28.00
2022-08-11T14:55:39.015Z,27.80
2022-08-11T14:58:10.744Z,27.60
2022-08-11T15:00:42.368Z,27.50
2022-08-11T15:03:13.783Z,28.20
2022-08-11T15:05:55.939Z,27.80
2022-08-11T15:08:48.379Z,28.00
2022-08-11T15:11:37.049Z,28.20
2022-08-11T15:14:08.430Z,28.10
2022-08-11T15:16:56.988Z,28.00
2022-08-11T15:19:40.446Z,28.20
2022-08-11T15:22:29.887Z,27.60
2022-08-11T15:25:00.274Z,27.40
2022-08-11T15:27:48.957Z,27.70
2022-08-11T15:30:36.032Z,28.00
2022-08-11T15:33:25.883Z,28.40
2022-08-11T15:36:14.530Z,28.10
2022-08-11T15:38:54.996Z,28.40
2022-08-11T15:41:54.572Z,28.50
2022-08-11T15:45:03.518Z,28.40
2022-08-11T15:47:38.630Z,28.90
2022-08-11T15:50:15.801Z,28.50
2022-08-11T15:52:50.984Z,28.90
2022-08-11T15:55:22.272Z,28.80
2022-08-11T15:58:10.805Z,28.90
2022-08-11T16:01:02.137Z,28.70
2022-08-11T16:04:08.206Z,28.80
2022-08-11T16:06:47.802Z,28.70
2022-08-11T16:09:23.508Z,29.20
2022-08-11T16:11:55.603Z,28.80
2022-08-11T16:14:43.295Z,28.70
2022-08-11T16:17:15.214Z,28.80
2022-08-11T16:19:47.943Z,28.50
2022-08-11T16:22:28.504Z,28.60
2022-08-11T16:26:30.573Z,28.80
2022-08-11T16:27:52.762Z,29.00
2022-08-11T16:30:22.418Z,28.70
2022-08-11T16:32:54.079Z,28.80
2022-08-11T16:35:43.801Z,29.00
2022-08-11T16:38:32.406Z,29.00
2022-08-11T16:41:07.142Z,29.00
2022-08-11T16:44:02.378Z,29.00
2022-08-11T16:46:50.664Z,29.20
2022-08-11T16:49:24.887Z,29.40
2022-08-11T16:51:54.447Z,29.50
2022-08-11T16:54:23.691Z,29.50
2022-08-11T16:57:18.680Z,29.20
2022-08-11T16:59:54.811Z,29.20
2022-08-11T17:02:50.977Z,29.40
2022-08-11T17:05:54.489Z,29.20
2022-08-11T17:08:49.872Z,29.30
2022-08-11T17:11:46.286Z,29.60
2022-08-11T17:14:18.170Z,29.60
2022-08-11T17:17:10.783Z,29.40
2022-08-11T17:20:40.541Z,29.40
2022-08-11T17:22:54.755Z,29.40
2022-08-11T17:25:28.238Z,29.50
2022-08-11T17:27:58.152Z,29.50
2022-08-11T17:30:50.577Z,29.50
2022-08-11T17:33:39.169Z,29.30
2022-08-11T17:36:10.017Z,29.40
2022-08-11T17:38:40.950Z,29.40
2022-08-11T17:41:28.980Z,29.40
2022-08-11T17:44:16.543Z,29.40
2022-08-11T17:47:25.442Z,29.20
2022-08-11T17:49:57.200Z,29.40
2022-08-11T17:53:05.398Z,29.60
2022-08-11T17:55:54.123Z,29.40
2022-08-11T17:58:41.895Z,29.40
2022-08-11T18:01:13.006Z,29.50
2022-08-11T18:03:53.029Z,29.50
2022-08-11T18:06:34.460Z,29.40
2022-08-11T18:09:26.391Z,29.50
2022-08-11T18:12:15.047Z,30.00
2022-08-11T18:15:05.674Z,29.70
2022-08-11T18:17:54.483Z,29.70
2022-08-11T18:20:42.556Z,29.60
2022-08-11T18:23:45.997Z,29.70
2022-08-11T18:26:39.151Z,29.90
2022-08-11T18:29:27.263Z,30.00
2022-08-11T18:32:20.830Z,29.80
2022-08-11T18:35:11.024Z,30.00
2022-08-11T18:38:03.866Z,30.50
2022-08-11T18:40:54.218Z,30.50
2022-08-11T18:43:44.381Z,30.70
2022-08-11T18:46:33.628Z,31.60
2022-08-11T18:50:02.129Z,30.90
2022-08-11T18:52:39.705Z,31.50
2022-08-11T18:55:29.998Z,31.50
2022-08-11T18:58:23.819Z,31.40
2022-08-11T19:01:13.272Z,31.90
2022-08-11T19:04:10.231Z,31.60
2022-08-11T19:06:59.707Z,32.30
2022-08-11T19:09:48.883Z,32.20
2022-08-11T19:12:36.923Z,32.40
2022-08-11T19:15:28.375Z,32.80
2022-08-11T19:18:16.189Z,33.00
2022-08-11T19:21:03.553Z,32.50
2022-08-11T19:23:53.815Z,32.10
2022-08-11T19:26:42.479Z,31.90
2022-08-11T19:30:04.908Z,31.80
2022-08-11T19:32:40.354Z,32.20
2022-08-11T19:35:28.627Z,32.20
2022-08-11T19:38:17.646Z,32.50
2022-08-11T19:41:05.416Z,32.60
2022-08-11T19:43:53.696Z,32.10
2022-08-11T19:46:42.857Z,32.90
2022-08-11T19:49:32.063Z,32.70
2022-08-11T19:52:18.958Z,32.80
2022-08-11T19:55:07.544Z,32.70
2022-08-11T19:57:55.760Z,32.60
2022-08-11T20:00:44.047Z,32.90
2022-08-11T20:03:32.703Z,33.10
2022-08-11T20:06:23.492Z,33.40
2022-08-11T20:09:14.499Z,33.00
2022-08-11T20:12:04.548Z,33.40
2022-08-11T20:14:54.171Z,33.50
2022-08-11T20:17:45.310Z,33.60
2022-08-11T20:20:34.903Z,33.40
2022-08-11T20:23:25.061Z,33.10
2022-08-11T20:26:30.342Z,33.20
2022-08-11T20:29:19.628Z,33.40
2022-08-11T20:32:09.752Z,33.30
2022-08-11T20:34:58.678Z,33.60
2022-08-11T20:37:50.744Z,33.90
2022-08-11T20:40:42.454Z,33.90
2022-08-11T20:44:08.056Z,34.20
2022-08-11T20:46:41.524Z,34.30
2022-08-11T20:49:44.860Z,34.60
2022-08-11T20:52:38.468Z,34.60
2022-08-11T20:55:46.316Z,34.60
2022-08-11T20:59:04.082Z,34.90
2022-08-11T21:01:44.709Z,35.50
2022-08-11T21:04:33.647Z,35.30
2022-08-11T21:07:28.122Z,35.40
2022-08-11T21:10:22.774Z,35.50
2022-08-11T21:13:24.232Z,35.20
2022-08-11T21:16:26.458Z,36.00
2022-08-11T21:19:19.139Z,35.70
2022-08-11T21:22:28.676Z,35.60
2022-08-11T21:25:17.327Z,36.10
2022-08-11T21:28:06.671Z,36.00
2022-08-11T21:30:57.652Z,35.60
2022-08-11T21:33:49.330Z,35.70
2022-08-11T21:36:37.843Z,35.90
2022-08-11T21:39:26.835Z,36.00
2022-08-11T21:42:14.932Z,36.00
2022-08-11T21:45:03.161Z,36.00
2022-08-11T21:48:01.182Z,36.30
2022-08-11T21:50:49.495Z,36.40
2022-08-11T21:53:37.163Z,36.40
2022-08-11T21:56:27.438Z,36.50
2022-08-11T21:59:16.347Z,36.60
2022-08-11T22:02:06.117Z,36.60
2022-08-11T22:04:55.471Z,36.80
2022-08-11T22:07:43.689Z,37.00
2022-08-11T22:10:42.032Z,37.30
2022-08-11T22:13:30.696Z,37.50
2022-08-11T22:16:17.315Z,37.30
2022-08-11T22:19:05.271Z,37.50
2022-08-11T22:22:03.055Z,37.60
2022-08-11T22:24:53.474Z,38.10
2022-08-11T22:27:40.503Z,38.40
2022-08-11T22:30:29.391Z,38.40
2022-08-11T22:33:23.342Z,38.50
2022-08-11T22:36:14.628Z,38.80
2022-08-11T22:39:03.347Z,38.90
2022-08-11T22:41:51.624Z,39.30
2022-08-11T22:44:37.621Z,39.40
2022-08-11T22:47:29.447Z,39.40
2022-08-11T22:50:26.803Z,39.50
2022-08-11T22:53:14.865Z,39.40
2022-08-11T22:56:01.413Z,39.40
2022-08-11T22:58:50.345Z,39.60
2022-08-11T23:01:37.998Z,39.60
2022-08-11T23:04:42.615Z,39.60
2022-08-11T23:07:49.764Z,39.60
2022-08-11T23:10:37.654Z,39.70
2022-08-11T23:13:26.016Z,39.50
2022-08-11T23:16:15.131Z,39.50
2022-08-11T23:19:02.193Z,39.70
2022-08-11T23:21:50.884Z,40.00
2022-08-11T23:24:39.225Z,40.30
2022-08-11T23:27:28.423Z,40.60
2022-08-11T23:30:18.551Z,40.60
2022-08-11T23:33:10.404Z,41.00
2022-08-11T23:36:03.572Z,41.10
2022-08-11T23:38:52.523Z,41.20
2022-08-11T23:41:39.606Z,41.40
2022-08-11T23:44:27.909Z,41.40
2022-08-11T23:47:18.363Z,41.70
2022-08-11T23:50:06.714Z,41.60
2022-08-11T23:52:54.112Z,41.90
2022-08-11T23:55:40.849Z,42.10
2022-08-11T23:58:28.246Z,42.10
